sensor_id;sensor_type;location;lat;lon;timestamp;temperature;humidity
10536;DHT22;5316;49.538;8.352;2024-01-27T00:02:10;4.20;99.90
10536;DHT22;5316;49.538;8.352;2024-01-27T00:04:37;4.20;99.90
10536;DHT22;5316;49.538;8.352;2024-01-27T00:07:05;4.20;99.90
10536;DHT22;5316;49.538;8.352;2024-01-27T00:09:32;4.20;99.90
10536;DHT22;5316;49.538;8.352;2024-01-27T00:11:58;4.10;99.90
10536;DHT22;5316;49.538;8.352;2024-01-27T00:14:25;4.10;99.90
10536;DHT22;5316;49.538;8.352;2024-01-27T00:16:52;4.10;99.90
10536;DHT22;5316;49.538;8.352;2024-01-27T00:19:18;4.10;99.90
10536;DHT22;5316;49.538;8.352;2024-01-27T00:21:45;4.00;99.90
10536;DHT22;5316;49.538;8.352;2024-01-27T00:24:14;4.00;99.90
10536;DHT22;5316;49.538;8.352;2024-01-27T00:26:42;3.90;1.00
10536;DHT22;5316;49.538;8.352;2024-01-27T00:29:09;3.90;1.00
10536;DHT22;5316;49.538;8.352;2024-01-27T00:31:36;3.80;1.00
10536;DHT22;5316;49.538;8.352;2024-01-27T00:34:03;3.80;1.00
10536;DHT22;5316;49.538;8.352;2024-01-27T00:36:29;3.80;1.00
10536;DHT22;5316;49.538;8.352;2024-01-27T00:38:56;3.80;1.00
10536;DHT22;5316;49.538;8.352;2024-01-27T00:41:24;3.80;1.00
10536;DHT22;5316;49.538;8.352;2024-01-27T00:43:51;3.80;1.00
10536;DHT22;5316;49.538;8.352;2024-01-27T00:46:18;3.80;1.00
10536;DHT22;5316;49.538;8.352;2024-01-27T00:48:44;3.80;1.00
10536;DHT22;5316;49.538;8.352;2024-01-27T00:51:12;3.80;1.00
10536;DHT22;5316;49.538;8.352;2024-01-27T00:53:39;3.70;1.00
10536;DHT22;5316;49.538;8.352;2024-01-27T00:56:06;3.70;1.00
10536;DHT22;5316;49.538;8.352;2024-01-27T00:58:34;3.70;1.00
10536;DHT22;5316;49.538;8.352;2024-01-27T01:01:01;3.60;1.00
10536;DHT22;5316;49.538;8.352;2024-01-27T01:03:28;3.60;1.00
10536;DHT22;5316;49.538;8.352;2024-01-27T01:05:55;3.60;1.00
10536;DHT22;5316;49.538;8.352;2024-01-27T01:08:22;3.60;1.00
10536;DHT22;5316;49.538;8.352;2024-01-27T01:10:49;3.60;1.00
10536;DHT22;5316;49.538;8.352;2024-01-27T01:13:15;3.60;1.00
10536;DHT22;5316;49.538;8.352;2024-01-27T01:15:43;3.60;1.00
10536;DHT22;5316;49.538;8.352;2024-01-27T01:18:10;3.60;1.00
10536;DHT22;5316;49.538;8.352;2024-01-27T01:20:37;3.60;1.00
10536;DHT22;5316;49.538;8.352;2024-01-27T01:23:04;3.60;1.00
10536;DHT22;5316;49.538;8.352;2024-01-27T01:25:30;3.60;1.00
10536;DHT22;5316;49.538;8.352;2024-01-27T01:27:57;3.60;1.00
10536;DHT22;5316;49.538;8.352;2024-01-27T01:30:24;3.60;1.00
10536;DHT22;5316;49.538;8.352;2024-01-27T01:32:52;3.70;1.00
10536;DHT22;5316;49.538;8.352;2024-01-27T01:35:19;3.60;99.90
10536;DHT22;5316;49.538;8.352;2024-01-27T01:37:45;3.60;1.00
10536;DHT22;5316;49.538;8.352;2024-01-27T01:40:13;3.50;1.00
10536;DHT22;5316;49.538;8.352;2024-01-27T01:42:41;3.50;1.00
10536;DHT22;5316;49.538;8.352;2024-01-27T01:45:09;3.50;1.00
10536;DHT22;5316;49.538;8.352;2024-01-27T01:47:38;3.50;1.00
10536;DHT22;5316;49.538;8.352;2024-01-27T01:50:08;3.50;1.00
10536;DHT22;5316;49.538;8.352;2024-01-27T01:52:35;3.40;1.00
10536;DHT22;5316;49.538;8.352;2024-01-27T01:55:02;3.40;1.00
10536;DHT22;5316;49.538;8.352;2024-01-27T01:57:30;3.40;1.00
10536;DHT22;5316;49.538;8.352;2024-01-27T01:59:57;3.40;1.00
10536;DHT22;5316;49.538;8.352;2024-01-27T02:02:24;3.40;1.00
10536;DHT22;5316;49.538;8.352;2024-01-27T02:04:50;3.30;1.00
10536;DHT22;5316;49.538;8.352;2024-01-27T02:07:18;3.30;1.00
10536;DHT22;5316;49.538;8.352;2024-01-27T02:09:45;3.30;1.00
10536;DHT22;5316;49.538;8.352;2024-01-27T02:12:12;3.20;1.00
10536;DHT22;5316;49.538;8.352;2024-01-27T02:14:38;3.20;1.00
10536;DHT22;5316;49.538;8.352;2024-01-27T02:17:05;3.20;1.00
10536;DHT22;5316;49.538;8.352;2024-01-27T02:19:32;3.20;1.00
10536;DHT22;5316;49.538;8.352;2024-01-27T02:21:58;3.20;1.00
10536;DHT22;5316;49.538;8.352;2024-01-27T02:24:27;3.20;1.00
10536;DHT22;5316;49.538;8.352;2024-01-27T02:26:53;3.20;1.00
10536;DHT22;5316;49.538;8.352;2024-01-27T02:29:20;3.20;1.00
10536;DHT22;5316;49.538;8.352;2024-01-27T02:31:47;3.20;1.00
10536;DHT22;5316;49.538;8.352;2024-01-27T02:34:14;3.20;1.00
10536;DHT22;5316;49.538;8.352;2024-01-27T02:36:41;3.20;1.00
10536;DHT22;5316;49.538;8.352;2024-01-27T02:39:09;3.20;1.00
10536;DHT22;5316;49.538;8.352;2024-01-27T02:41:37;3.10;1.00
10536;DHT22;5316;49.538;8.352;2024-01-27T02:44:04;3.20;1.00
10536;DHT22;5316;49.538;8.352;2024-01-27T02:46:31;3.10;1.00
10536;DHT22;5316;49.538;8.352;2024-01-27T02:48:58;3.10;1.00
10536;DHT22;5316;49.538;8.352;2024-01-27T02:51:25;3.10;1.00
10536;DHT22;5316;49.538;8.352;2024-01-27T02:53:51;3.10;1.00
10536;DHT22;5316;49.538;8.352;2024-01-27T02:56:18;3.00;1.00
10536;DHT22;5316;49.538;8.352;2024-01-27T02:58:46;3.00;1.00
10536;DHT22;5316;49.538;8.352;2024-01-27T03:01:13;3.00;1.00
10536;DHT22;5316;49.538;8.352;2024-01-27T03:03:40;3.00;1.00
10536;DHT22;5316;49.538;8.352;2024-01-27T03:06:07;2.90;1.00
10536;DHT22;5316;49.538;8.352;2024-01-27T03:08:34;2.90;1.00
10536;DHT22;5316;49.538;8.352;2024-01-27T03:11:00;2.90;1.00
10536;DHT22;5316;49.538;8.352;2024-01-27T03:13:29;2.90;1.00
10536;DHT22;5316;49.538;8.352;2024-01-27T03:15:57;2.90;1.00
10536;DHT22;5316;49.538;8.352;2024-01-27T03:18:23;2.90;7.80
10536;DHT22;5316;49.538;8.352;2024-01-27T03:20:50;2.90;1.00
10536;DHT22;5316;49.538;8.352;2024-01-27T03:23:17;2.90;1.00
10536;DHT22;5316;49.538;8.352;2024-01-27T03:25:44;2.90;1.00
10536;DHT22;5316;49.538;8.352;2024-01-27T03:28:11;2.90;1.00
10536;DHT22;5316;49.538;8.352;2024-01-27T03:30:38;2.90;1.00
10536;DHT22;5316;49.538;8.352;2024-01-27T03:33:06;2.80;1.00
10536;DHT22;5316;49.538;8.352;2024-01-27T03:35:36;2.80;16.70
10536;DHT22;5316;49.538;8.352;2024-01-27T03:38:03;2.80;1.00
10536;DHT22;5316;49.538;8.352;2024-01-27T03:40:30;2.80;1.00
10536;DHT22;5316;49.538;8.352;2024-01-27T03:42:56;2.80;1.00
10536;DHT22;5316;49.538;8.352;2024-01-27T03:45:23;2.80;1.00
10536;DHT22;5316;49.538;8.352;2024-01-27T03:47:50;2.80;1.00
10536;DHT22;5316;49.538;8.352;2024-01-27T03:50:18;2.80;1.00
10536;DHT22;5316;49.538;8.352;2024-01-27T03:52:44;2.70;1.00
10536;DHT22;5316;49.538;8.352;2024-01-27T03:55:11;2.70;1.00
10536;DHT22;5316;49.538;8.352;2024-01-27T03:57:38;2.60;1.00
10536;DHT22;5316;49.538;8.352;2024-01-27T04:00:06;2.50;34.50
10536;DHT22;5316;49.538;8.352;2024-01-27T04:02:33;2.50;99.90
10536;DHT22;5316;49.538;8.352;2024-01-27T04:04:59;2.50;99.90
10536;DHT22;5316;49.538;8.352;2024-01-27T04:07:27;2.50;99.90
10536;DHT22;5316;49.538;8.352;2024-01-27T04:09:54;2.50;99.90
10536;DHT22;5316;49.538;8.352;2024-01-27T04:12:21;2.50;99.90
10536;DHT22;5316;49.538;8.352;2024-01-27T04:14:48;2.50;99.90
10536;DHT22;5316;49.538;8.352;2024-01-27T04:17:14;2.50;99.90
10536;DHT22;5316;49.538;8.352;2024-01-27T04:19:41;2.50;99.90
10536;DHT22;5316;49.538;8.352;2024-01-27T04:22:08;2.50;99.90
10536;DHT22;5316;49.538;8.352;2024-01-27T04:24:36;2.50;99.90
10536;DHT22;5316;49.538;8.352;2024-01-27T04:27:03;2.40;99.90
10536;DHT22;5316;49.538;8.352;2024-01-27T04:29:30;2.40;99.90
10536;DHT22;5316;49.538;8.352;2024-01-27T04:31:56;2.40;99.90
10536;DHT22;5316;49.538;8.352;2024-01-27T04:34:23;2.40;99.90
10536;DHT22;5316;49.538;8.352;2024-01-27T04:36:50;2.50;99.90
10536;DHT22;5316;49.538;8.352;2024-01-27T04:39:17;2.50;99.90
10536;DHT22;5316;49.538;8.352;2024-01-27T04:41:45;2.50;99.90
10536;DHT22;5316;49.538;8.352;2024-01-27T04:44:12;2.50;99.90
10536;DHT22;5316;49.538;8.352;2024-01-27T04:46:39;2.50;99.90
10536;DHT22;5316;49.538;8.352;2024-01-27T04:49:06;2.40;99.90
10536;DHT22;5316;49.538;8.352;2024-01-27T04:51:32;2.40;99.90
10536;DHT22;5316;49.538;8.352;2024-01-27T04:53:59;2.40;99.90
10536;DHT22;5316;49.538;8.352;2024-01-27T04:56:26;2.40;99.90
10536;DHT22;5316;49.538;8.352;2024-01-27T04:58:54;2.40;99.90
10536;DHT22;5316;49.538;8.352;2024-01-27T05:01:20;2.50;99.90
10536;DHT22;5316;49.538;8.352;2024-01-27T05:03:47;2.40;99.90
10536;DHT22;5316;49.538;8.352;2024-01-27T05:06:14;2.40;99.90
10536;DHT22;5316;49.538;8.352;2024-01-27T05:08:41;2.40;99.90
10536;DHT22;5316;49.538;8.352;2024-01-27T05:11:08;2.40;99.90
10536;DHT22;5316;49.538;8.352;2024-01-27T05:13:34;2.40;99.90
10536;DHT22;5316;49.538;8.352;2024-01-27T05:16:05;2.40;99.90
10536;DHT22;5316;49.538;8.352;2024-01-27T05:18:31;2.40;99.90
10536;DHT22;5316;49.538;8.352;2024-01-27T05:20:58;2.30;99.90
10536;DHT22;5316;49.538;8.352;2024-01-27T05:23:25;2.30;99.90
10536;DHT22;5316;49.538;8.352;2024-01-27T05:25:51;2.30;99.90
10536;DHT22;5316;49.538;8.352;2024-01-27T05:28:20;2.30;99.90
10536;DHT22;5316;49.538;8.352;2024-01-27T05:30:46;2.30;99.90
10536;DHT22;5316;49.538;8.352;2024-01-27T05:33:14;2.30;99.90
10536;DHT22;5316;49.538;8.352;2024-01-27T05:35:41;2.30;99.90
10536;DHT22;5316;49.538;8.352;2024-01-27T05:38:08;2.30;99.90
10536;DHT22;5316;49.538;8.352;2024-01-27T05:40:35;2.30;99.90
10536;DHT22;5316;49.538;8.352;2024-01-27T05:43:02;2.30;99.90
10536;DHT22;5316;49.538;8.352;2024-01-27T05:45:28;2.30;99.90
10536;DHT22;5316;49.538;8.352;2024-01-27T05:47:56;2.30;99.90
10536;DHT22;5316;49.538;8.352;2024-01-27T05:50:26;2.30;99.90
10536;DHT22;5316;49.538;8.352;2024-01-27T05:52:52;2.30;99.90
10536;DHT22;5316;49.538;8.352;2024-01-27T05:55:19;2.30;99.90
10536;DHT22;5316;49.538;8.352;2024-01-27T05:57:46;2.30;99.90
10536;DHT22;5316;49.538;8.352;2024-01-27T06:00:13;2.30;99.90
10536;DHT22;5316;49.538;8.352;2024-01-27T06:02:40;2.30;99.90
10536;DHT22;5316;49.538;8.352;2024-01-27T06:05:07;2.20;99.90
10536;DHT22;5316;49.538;8.352;2024-01-27T06:07:37;2.20;99.90
10536;DHT22;5316;49.538;8.352;2024-01-27T06:10:06;2.20;99.90
10536;DHT22;5316;49.538;8.352;2024-01-27T06:12:33;2.20;99.90
10536;DHT22;5316;49.538;8.352;2024-01-27T06:15:01;2.20;99.90
10536;DHT22;5316;49.538;8.352;2024-01-27T06:17:28;2.20;99.90
10536;DHT22;5316;49.538;8.352;2024-01-27T06:19:55;2.20;99.90
10536;DHT22;5316;49.538;8.352;2024-01-27T06:22:21;2.20;99.90
10536;DHT22;5316;49.538;8.352;2024-01-27T06:24:49;2.20;99.90
10536;DHT22;5316;49.538;8.352;2024-01-27T06:27:16;2.20;99.90
10536;DHT22;5316;49.538;8.352;2024-01-27T06:29:43;2.20;99.90
10536;DHT22;5316;49.538;8.352;2024-01-27T06:32:10;2.20;99.90
10536;DHT22;5316;49.538;8.352;2024-01-27T06:34:37;2.40;99.90
10536;DHT22;5316;49.538;8.352;2024-01-27T06:37:03;2.20;99.90
10536;DHT22;5316;49.538;8.352;2024-01-27T06:39:30;2.20;99.90
10536;DHT22;5316;49.538;8.352;2024-01-27T06:41:58;2.20;99.90
10536;DHT22;5316;49.538;8.352;2024-01-27T06:44:25;2.20;99.90
10536;DHT22;5316;49.538;8.352;2024-01-27T06:46:52;2.20;99.90
10536;DHT22;5316;49.538;8.352;2024-01-27T06:49:19;2.20;99.90
10536;DHT22;5316;49.538;8.352;2024-01-27T06:51:45;2.20;99.90
10536;DHT22;5316;49.538;8.352;2024-01-27T06:54:12;2.20;99.90
10536;DHT22;5316;49.538;8.352;2024-01-27T06:56:39;2.10;99.90
10536;DHT22;5316;49.538;8.352;2024-01-27T06:59:07;2.10;99.90
10536;DHT22;5316;49.538;8.352;2024-01-27T07:01:34;2.10;99.90
10536;DHT22;5316;49.538;8.352;2024-01-27T07:04:00;2.10;99.90
10536;DHT22;5316;49.538;8.352;2024-01-27T07:06:27;2.00;99.90
10536;DHT22;5316;49.538;8.352;2024-01-27T07:08:54;2.00;99.90
10536;DHT22;5316;49.538;8.352;2024-01-27T07:11:20;1.90;99.90
10536;DHT22;5316;49.538;8.352;2024-01-27T07:13:47;1.90;99.90
10536;DHT22;5316;49.538;8.352;2024-01-27T07:16:15;1.90;99.90
10536;DHT22;5316;49.538;8.352;2024-01-27T07:18:42;2.00;99.90
10536;DHT22;5316;49.538;8.352;2024-01-27T07:21:14;1.90;99.90
10536;DHT22;5316;49.538;8.352;2024-01-27T07:23:40;1.90;99.90
10536;DHT22;5316;49.538;8.352;2024-01-27T07:26:08;2.00;99.90
10536;DHT22;5316;49.538;8.352;2024-01-27T07:28:35;2.00;99.90
10536;DHT22;5316;49.538;8.352;2024-01-27T07:31:02;2.00;99.90
10536;DHT22;5316;49.538;8.352;2024-01-27T07:33:30;2.00;99.90
10536;DHT22;5316;49.538;8.352;2024-01-27T07:35:56;2.00;99.90
10536;DHT22;5316;49.538;8.352;2024-01-27T07:38:23;2.00;99.90
10536;DHT22;5316;49.538;8.352;2024-01-27T07:40:50;2.00;99.90
10536;DHT22;5316;49.538;8.352;2024-01-27T07:43:17;2.00;99.90
10536;DHT22;5316;49.538;8.352;2024-01-27T07:45:43;2.00;99.90
10536;DHT22;5316;49.538;8.352;2024-01-27T07:48:11;2.00;99.90
10536;DHT22;5316;49.538;8.352;2024-01-27T07:50:39;2.00;99.90
10536;DHT22;5316;49.538;8.352;2024-01-27T07:53:05;2.10;99.90
10536;DHT22;5316;49.538;8.352;2024-01-27T07:55:33;2.10;99.90
10536;DHT22;5316;49.538;8.352;2024-01-27T07:58:00;2.10;99.90
10536;DHT22;5316;49.538;8.352;2024-01-27T08:00:27;2.10;99.90
10536;DHT22;5316;49.538;8.352;2024-01-27T08:02:54;2.20;99.90
10536;DHT22;5316;49.538;8.352;2024-01-27T08:05:21;2.20;99.90
10536;DHT22;5316;49.538;8.352;2024-01-27T08:07:49;2.20;99.90
10536;DHT22;5316;49.538;8.352;2024-01-27T08:10:16;2.20;99.90
10536;DHT22;5316;49.538;8.352;2024-01-27T08:12:43;2.30;99.90
10536;DHT22;5316;49.538;8.352;2024-01-27T08:15:09;2.30;99.90
10536;DHT22;5316;49.538;8.352;2024-01-27T08:17:36;2.30;99.90
10536;DHT22;5316;49.538;8.352;2024-01-27T08:20:04;2.30;99.90
10536;DHT22;5316;49.538;8.352;2024-01-27T08:22:31;2.40;99.90
10536;DHT22;5316;49.538;8.352;2024-01-27T08:24:59;2.40;99.90
10536;DHT22;5316;49.538;8.352;2024-01-27T08:27:26;2.40;99.90
10536;DHT22;5316;49.538;8.352;2024-01-27T08:29:51;2.50;99.90
10536;DHT22;5316;49.538;8.352;2024-01-27T08:32:18;2.50;99.90
10536;DHT22;5316;49.538;8.352;2024-01-27T08:34:45;2.50;99.90
10536;DHT22;5316;49.538;8.352;2024-01-27T08:37:18;2.50;99.90
10536;DHT22;5316;49.538;8.352;2024-01-27T08:39:45;2.60;99.90
10536;DHT22;5316;49.538;8.352;2024-01-27T08:42:13;2.60;99.90
10536;DHT22;5316;49.538;8.352;2024-01-27T08:44:40;2.60;99.90
10536;DHT22;5316;49.538;8.352;2024-01-27T08:47:07;2.70;99.90
10536;DHT22;5316;49.538;8.352;2024-01-27T08:49:33;2.70;99.90
10536;DHT22;5316;49.538;8.352;2024-01-27T08:52:00;2.70;99.90
10536;DHT22;5316;49.538;8.352;2024-01-27T08:54:27;2.80;99.90
10536;DHT22;5316;49.538;8.352;2024-01-27T08:56:54;2.70;99.90
10536;DHT22;5316;49.538;8.352;2024-01-27T08:59:22;2.80;99.90
10536;DHT22;5316;49.538;8.352;2024-01-27T09:01:48;2.90;99.90
10536;DHT22;5316;49.538;8.352;2024-01-27T09:04:15;2.90;99.90
10536;DHT22;5316;49.538;8.352;2024-01-27T09:06:42;2.90;99.90
10536;DHT22;5316;49.538;8.352;2024-01-27T09:09:08;2.90;99.90
10536;DHT22;5316;49.538;8.352;2024-01-27T09:11:35;2.90;99.90
10536;DHT22;5316;49.538;8.352;2024-01-27T09:14:02;3.00;99.90
10536;DHT22;5316;49.538;8.352;2024-01-27T09:16:32;3.00;99.90
10536;DHT22;5316;49.538;8.352;2024-01-27T09:18:58;3.10;99.90
10536;DHT22;5316;49.538;8.352;2024-01-27T09:21:26;3.10;99.90
10536;DHT22;5316;49.538;8.352;2024-01-27T09:23:54;3.20;99.90
10536;DHT22;5316;49.538;8.352;2024-01-27T09:26:22;3.30;99.90
10536;DHT22;5316;49.538;8.352;2024-01-27T09:28:50;3.30;99.90
10536;DHT22;5316;49.538;8.352;2024-01-27T09:31:20;3.40;99.90
10536;DHT22;5316;49.538;8.352;2024-01-27T09:33:50;3.50;99.90
10536;DHT22;5316;49.538;8.352;2024-01-27T09:36:17;3.50;99.90
10536;DHT22;5316;49.538;8.352;2024-01-27T09:38:44;3.60;99.90
10536;DHT22;5316;49.538;8.352;2024-01-27T09:41:13;3.70;99.90
10536;DHT22;5316;49.538;8.352;2024-01-27T09:43:42;3.80;99.90
10536;DHT22;5316;49.538;8.352;2024-01-27T09:46:10;3.80;99.90
10536;DHT22;5316;49.538;8.352;2024-01-27T09:48:37;3.90;99.90
10536;DHT22;5316;49.538;8.352;2024-01-27T09:51:07;3.90;99.90
10536;DHT22;5316;49.538;8.352;2024-01-27T09:53:34;4.00;99.90
10536;DHT22;5316;49.538;8.352;2024-01-27T09:56:02;4.00;99.90
10536;DHT22;5316;49.538;8.352;2024-01-27T09:58:30;4.10;99.90
10536;DHT22;5316;49.538;8.352;2024-01-27T10:00:59;4.10;99.90
10536;DHT22;5316;49.538;8.352;2024-01-27T10:03:27;4.20;99.90
10536;DHT22;5316;49.538;8.352;2024-01-27T10:05:56;4.20;99.90
10536;DHT22;5316;49.538;8.352;2024-01-27T10:08:24;4.20;99.90
10536;DHT22;5316;49.538;8.352;2024-01-27T10:10:54;4.30;99.90
10536;DHT22;5316;49.538;8.352;2024-01-27T10:13:21;4.30;99.90
10536;DHT22;5316;49.538;8.352;2024-01-27T10:15:59;4.40;99.90
10536;DHT22;5316;49.538;8.352;2024-01-27T10:18:27;4.40;99.90
10536;DHT22;5316;49.538;8.352;2024-01-27T10:20:54;4.50;99.90
10536;DHT22;5316;49.538;8.352;2024-01-27T10:23:20;4.50;99.90
10536;DHT22;5316;49.538;8.352;2024-01-27T10:25:49;4.50;99.90
10536;DHT22;5316;49.538;8.352;2024-01-27T10:28:16;4.60;99.90
10536;DHT22;5316;49.538;8.352;2024-01-27T10:30:43;4.60;99.90
10536;DHT22;5316;49.538;8.352;2024-01-27T10:33:11;4.60;99.90
10536;DHT22;5316;49.538;8.352;2024-01-27T10:35:38;4.60;99.90
10536;DHT22;5316;49.538;8.352;2024-01-27T10:38:05;4.60;99.90
10536;DHT22;5316;49.538;8.352;2024-01-27T10:40:32;4.70;99.90
10536;DHT22;5316;49.538;8.352;2024-01-27T10:43:05;4.70;99.90
10536;DHT22;5316;49.538;8.352;2024-01-27T10:45:35;4.70;99.90
10536;DHT22;5316;49.538;8.352;2024-01-27T10:48:04;4.80;99.90
10536;DHT22;5316;49.538;8.352;2024-01-27T10:50:35;4.90;99.90
10536;DHT22;5316;49.538;8.352;2024-01-27T10:53:03;4.90;99.90
10536;DHT22;5316;49.538;8.352;2024-01-27T10:55:31;5.00;97.70
10536;DHT22;5316;49.538;8.352;2024-01-27T10:57:59;5.00;84.90
10536;DHT22;5316;49.538;8.352;2024-01-27T11:00:29;5.10;81.30
10536;DHT22;5316;49.538;8.352;2024-01-27T11:02:58;5.10;50.70
10536;DHT22;5316;49.538;8.352;2024-01-27T11:05:27;5.10;24.30
10536;DHT22;5316;49.538;8.352;2024-01-27T11:07:55;5.20;1.00
10536;DHT22;5316;49.538;8.352;2024-01-27T11:10:22;5.20;1.00
10536;DHT22;5316;49.538;8.352;2024-01-27T11:12:49;5.20;1.00
10536;DHT22;5316;49.538;8.352;2024-01-27T11:15:18;5.30;1.00
10536;DHT22;5316;49.538;8.352;2024-01-27T11:17:46;5.30;1.00
10536;DHT22;5316;49.538;8.352;2024-01-27T11:20:13;5.40;1.00
10536;DHT22;5316;49.538;8.352;2024-01-27T11:22:42;5.40;1.00
10536;DHT22;5316;49.538;8.352;2024-01-27T11:25:15;5.40;1.00
10536;DHT22;5316;49.538;8.352;2024-01-27T11:27:43;5.50;1.00
10536;DHT22;5316;49.538;8.352;2024-01-27T11:30:25;5.60;1.00
10536;DHT22;5316;49.538;8.352;2024-01-27T11:32:55;5.70;1.00
10536;DHT22;5316;49.538;8.352;2024-01-27T11:35:22;5.70;1.00
10536;DHT22;5316;49.538;8.352;2024-01-27T11:37:49;5.70;99.90
10536;DHT22;5316;49.538;8.352;2024-01-27T11:40:16;5.70;1.00
10536;DHT22;5316;49.538;8.352;2024-01-27T11:42:43;5.80;25.30
10536;DHT22;5316;49.538;8.352;2024-01-27T11:45:10;5.80;1.00
10536;DHT22;5316;49.538;8.352;2024-01-27T11:47:37;5.80;1.00
10536;DHT22;5316;49.538;8.352;2024-01-27T11:50:05;5.80;1.00
10536;DHT22;5316;49.538;8.352;2024-01-27T11:52:33;5.80;1.00
10536;DHT22;5316;49.538;8.352;2024-01-27T11:55:00;5.90;99.90
10536;DHT22;5316;49.538;8.352;2024-01-27T11:57:27;5.90;1.00
10536;DHT22;5316;49.538;8.352;2024-01-27T11:59:56;6.00;99.90
10536;DHT22;5316;49.538;8.352;2024-01-27T12:02:22;6.00;99.90
10536;DHT22;5316;49.538;8.352;2024-01-27T12:04:48;6.00;1.00
10536;DHT22;5316;49.538;8.352;2024-01-27T12:07:17;6.10;99.90
10536;DHT22;5316;49.538;8.352;2024-01-27T12:09:45;6.10;99.90
10536;DHT22;5316;49.538;8.352;2024-01-27T12:12:13;6.10;99.90
10536;DHT22;5316;49.538;8.352;2024-01-27T12:14:40;6.20;2.80
10536;DHT22;5316;49.538;8.352;2024-01-27T12:17:09;6.30;1.00
10536;DHT22;5316;49.538;8.352;2024-01-27T12:19:36;6.30;1.00
10536;DHT22;5316;49.538;8.352;2024-01-27T12:22:04;6.40;99.90
10536;DHT22;5316;49.538;8.352;2024-01-27T12:24:32;6.40;99.90
10536;DHT22;5316;49.538;8.352;2024-01-27T12:26:59;6.50;87.70
10536;DHT22;5316;49.538;8.352;2024-01-27T12:29:26;6.50;1.00
10536;DHT22;5316;49.538;8.352;2024-01-27T12:31:54;6.60;1.00
10536;DHT22;5316;49.538;8.352;2024-01-27T12:34:21;6.60;1.00
10536;DHT22;5316;49.538;8.352;2024-01-27T12:36:47;6.60;1.00
10536;DHT22;5316;49.538;8.352;2024-01-27T12:39:14;6.60;1.00
10536;DHT22;5316;49.538;8.352;2024-01-27T12:41:42;6.70;99.90
10536;DHT22;5316;49.538;8.352;2024-01-27T12:44:09;6.80;99.90
10536;DHT22;5316;49.538;8.352;2024-01-27T12:46:36;6.80;99.90
10536;DHT22;5316;49.538;8.352;2024-01-27T12:49:03;6.90;99.90
10536;DHT22;5316;49.538;8.352;2024-01-27T12:51:30;6.90;99.90
10536;DHT22;5316;49.538;8.352;2024-01-27T12:53:57;6.90;99.90
10536;DHT22;5316;49.538;8.352;2024-01-27T12:56:24;7.00;99.90
10536;DHT22;5316;49.538;8.352;2024-01-27T12:58:52;7.00;85.70
10536;DHT22;5316;49.538;8.352;2024-01-27T13:01:19;7.00;1.00
10536;DHT22;5316;49.538;8.352;2024-01-27T13:03:46;7.10;99.90
10536;DHT22;5316;49.538;8.352;2024-01-27T13:06:13;7.20;99.90
10536;DHT22;5316;49.538;8.352;2024-01-27T13:08:39;7.30;99.90
10536;DHT22;5316;49.538;8.352;2024-01-27T13:11:06;7.30;99.90
10536;DHT22;5316;49.538;8.352;2024-01-27T13:13:33;7.50;1.00
10536;DHT22;5316;49.538;8.352;2024-01-27T13:16:01;7.50;99.90
10536;DHT22;5316;49.538;8.352;2024-01-27T13:18:28;7.60;1.00
10536;DHT22;5316;49.538;8.352;2024-01-27T13:20:55;7.70;99.90
10536;DHT22;5316;49.538;8.352;2024-01-27T13:23:21;7.90;99.90
10536;DHT22;5316;49.538;8.352;2024-01-27T13:25:48;8.00;99.90
10536;DHT22;5316;49.538;8.352;2024-01-27T13:28:15;8.10;99.90
10536;DHT22;5316;49.538;8.352;2024-01-27T13:30:42;8.30;78.90
10536;DHT22;5316;49.538;8.352;2024-01-27T13:33:10;8.40;99.90
10536;DHT22;5316;49.538;8.352;2024-01-27T13:35:38;8.50;99.90
10536;DHT22;5316;49.538;8.352;2024-01-27T13:38:08;8.60;99.90
10536;DHT22;5316;49.538;8.352;2024-01-27T13:40:35;8.70;59.30
10536;DHT22;5316;49.538;8.352;2024-01-27T13:43:01;8.90;1.00
10536;DHT22;5316;49.538;8.352;2024-01-27T13:45:29;9.00;1.00
10536;DHT22;5316;49.538;8.352;2024-01-27T13:47:56;9.10;99.90
10536;DHT22;5316;49.538;8.352;2024-01-27T13:50:25;9.20;99.90
10536;DHT22;5316;49.538;8.352;2024-01-27T13:52:52;9.30;99.90
10536;DHT22;5316;49.538;8.352;2024-01-27T13:55:19;9.40;99.90
10536;DHT22;5316;49.538;8.352;2024-01-27T13:57:47;9.60;99.90
10536;DHT22;5316;49.538;8.352;2024-01-27T14:00:15;9.60;99.90
10536;DHT22;5316;49.538;8.352;2024-01-27T14:02:42;9.80;98.10
10536;DHT22;5316;49.538;8.352;2024-01-27T14:05:09;9.80;39.30
10536;DHT22;5316;49.538;8.352;2024-01-27T14:07:37;9.90;89.80
10536;DHT22;5316;49.538;8.352;2024-01-27T14:10:04;10.00;1.00
10536;DHT22;5316;49.538;8.352;2024-01-27T14:12:31;10.10;1.00
10536;DHT22;5316;49.538;8.352;2024-01-27T14:15:03;10.20;1.00
10536;DHT22;5316;49.538;8.352;2024-01-27T14:17:32;10.30;1.00
10536;DHT22;5316;49.538;8.352;2024-01-27T14:19:59;10.30;1.00
10536;DHT22;5316;49.538;8.352;2024-01-27T14:22:26;10.30;1.00
10536;DHT22;5316;49.538;8.352;2024-01-27T14:24:54;10.30;1.00
10536;DHT22;5316;49.538;8.352;2024-01-27T14:27:21;10.40;1.00
10536;DHT22;5316;49.538;8.352;2024-01-27T14:29:51;10.40;1.00
10536;DHT22;5316;49.538;8.352;2024-01-27T14:32:18;10.50;1.00
10536;DHT22;5316;49.538;8.352;2024-01-27T14:34:45;10.60;1.00
10536;DHT22;5316;49.538;8.352;2024-01-27T14:37:12;10.60;1.00
10536;DHT22;5316;49.538;8.352;2024-01-27T14:39:39;10.70;1.00
10536;DHT22;5316;49.538;8.352;2024-01-27T14:42:09;10.90;99.90
10536;DHT22;5316;49.538;8.352;2024-01-27T14:44:35;10.90;99.90
10536;DHT22;5316;49.538;8.352;2024-01-27T14:47:04;11.10;99.90
10536;DHT22;5316;49.538;8.352;2024-01-27T14:49:32;11.10;99.90
10536;DHT22;5316;49.538;8.352;2024-01-27T14:51:58;11.20;99.90
10536;DHT22;5316;49.538;8.352;2024-01-27T14:54:26;11.30;99.90
10536;DHT22;5316;49.538;8.352;2024-01-27T14:56:53;11.20;99.90
10536;DHT22;5316;49.538;8.352;2024-01-27T14:59:21;11.20;99.90
10536;DHT22;5316;49.538;8.352;2024-01-27T15:01:47;11.10;99.90
10536;DHT22;5316;49.538;8.352;2024-01-27T15:04:15;10.90;99.90
10536;DHT22;5316;49.538;8.352;2024-01-27T15:06:41;10.80;99.90
10536;DHT22;5316;49.538;8.352;2024-01-27T15:09:08;10.70;99.90
10536;DHT22;5316;49.538;8.352;2024-01-27T15:11:35;10.50;99.90
10536;DHT22;5316;49.538;8.352;2024-01-27T15:14:02;10.40;99.90
10536;DHT22;5316;49.538;8.352;2024-01-27T15:16:30;10.10;99.90
10536;DHT22;5316;49.538;8.352;2024-01-27T15:19:00;9.80;1.00
10536;DHT22;5316;49.538;8.352;2024-01-27T15:21:27;9.60;1.00
10536;DHT22;5316;49.538;8.352;2024-01-27T15:23:55;9.40;1.00
10536;DHT22;5316;49.538;8.352;2024-01-27T15:26:21;9.30;1.00
10536;DHT22;5316;49.538;8.352;2024-01-27T15:28:48;9.10;1.00
10536;DHT22;5316;49.538;8.352;2024-01-27T15:31:15;8.90;24.20
10536;DHT22;5316;49.538;8.352;2024-01-27T15:33:43;8.80;99.90
10536;DHT22;5316;49.538;8.352;2024-01-27T15:36:10;8.60;99.90
10536;DHT22;5316;49.538;8.352;2024-01-27T15:38:37;8.40;99.90
10536;DHT22;5316;49.538;8.352;2024-01-27T15:41:04;8.20;99.90
10536;DHT22;5316;49.538;8.352;2024-01-27T15:43:33;8.10;1.00
10536;DHT22;5316;49.538;8.352;2024-01-27T15:45:59;8.00;1.00
10536;DHT22;5316;49.538;8.352;2024-01-27T15:48:30;7.90;1.00
10536;DHT22;5316;49.538;8.352;2024-01-27T15:50:58;7.80;1.00
10536;DHT22;5316;49.538;8.352;2024-01-27T15:53:24;7.70;1.00
10536;DHT22;5316;49.538;8.352;2024-01-27T15:55:51;7.60;1.00
10536;DHT22;5316;49.538;8.352;2024-01-27T15:58:18;7.50;1.00
10536;DHT22;5316;49.538;8.352;2024-01-27T16:00:45;7.40;1.00
10536;DHT22;5316;49.538;8.352;2024-01-27T16:03:12;7.30;39.40
10536;DHT22;5316;49.538;8.352;2024-01-27T16:05:39;7.30;99.90
10536;DHT22;5316;49.538;8.352;2024-01-27T16:08:07;7.20;99.90